Terminal Aerodrome Forecast
Issued by NWS Detroit/Pontiac, MI

Home | Current Version | Previous Version | Text Only | Print | Product List | Glossary On
Versions: 1 2 3 4 5 6 7 8 9 10 11 12
000
FTUS43 KDTX 222327
TAFFNT
TAF
KFNT 222327Z 2300/2324 18009KT P6SM SCT120
     FM230700 18008KT P6SM SCT040 OVC120
     FM231100 18007KT 5SM -SHRA BKN030 OVC100
     FM231500 16007KT 5SM -RA SCT025 OVC080
     FM231800 13010KT 2SM RA BR OVC010=

USA.gov is the U.S. government's official web portal to all federal, state and local government web resources and services.